createdAt,value
2023-03-11T00:01:41.045Z,-0.82
2023-03-11T00:06:44.488Z,-0.83
2023-03-11T00:11:49.121Z,-0.83
2023-03-11T00:16:52.264Z,-0.89
2023-03-11T00:21:55.733Z,-0.92
2023-03-11T00:27:00.111Z,-0.91
2023-03-11T00:32:06.310Z,-0.91
2023-03-11T00:37:10.139Z,-0.93
2023-03-11T00:42:14.653Z,-1.00
2023-03-11T00:47:17.964Z,-0.91
2023-03-11T00:52:21.017Z,-0.91
2023-03-11T00:57:27.867Z,-0.76
2023-03-11T01:02:31.365Z,-0.68
2023-03-11T01:07:34.779Z,-0.58
2023-03-11T01:12:44.090Z,-0.50
2023-03-11T01:17:47.183Z,-0.53
2023-03-11T01:22:50.495Z,-0.66
2023-03-11T01:27:54.940Z,-0.73
2023-03-11T01:32:59.110Z,-0.67
2023-03-11T01:38:04.792Z,-0.76
2023-03-11T01:43:47.871Z,-0.83
2023-03-11T01:49:16.927Z,-0.81
2023-03-11T01:54:23.757Z,-0.80
2023-03-11T01:59:32.119Z,-0.72
2023-03-11T02:04:37.137Z,-0.80
2023-03-11T02:09:40.225Z,-0.87
2023-03-11T02:14:48.693Z,-0.93
2023-03-11T02:20:12.261Z,-0.90
2023-03-11T02:25:26.129Z,-0.84
2023-03-11T02:30:35.086Z,-0.86
2023-03-11T02:35:39.151Z,-0.89
2023-03-11T02:40:51.842Z,-0.92
2023-03-11T02:45:58.816Z,-0.94
2023-03-11T02:51:04.612Z,-0.96
2023-03-11T02:56:08.771Z,-0.99
2023-03-11T03:01:13.406Z,-0.96
2023-03-11T03:06:19.506Z,-0.86
2023-03-11T03:11:24.664Z,-0.95
2023-03-11T03:16:29.232Z,-1.08
2023-03-11T03:21:32.536Z,-1.13
2023-03-11T03:26:35.974Z,-1.23
2023-03-11T03:31:40.917Z,-1.29
2023-03-11T03:36:44.654Z,-1.34
2023-03-11T03:41:47.956Z,-1.34
2023-03-11T03:46:53.133Z,-1.27
2023-03-11T03:51:56.347Z,-1.29
2023-03-11T03:57:07.142Z,-1.35
2023-03-11T04:02:18.737Z,-1.43
2023-03-11T04:07:21.933Z,-1.48
2023-03-11T04:12:25.219Z,-1.50
2023-03-11T04:17:29.644Z,-1.53
2023-03-11T04:22:36.239Z,-1.62
2023-03-11T04:27:42.683Z,-1.68
2023-03-11T04:32:48.030Z,-1.73
2023-03-11T04:37:51.506Z,-1.77
2023-03-11T04:42:55.145Z,-1.81
2023-03-11T04:48:00.026Z,-2.01
2023-03-11T04:53:04.277Z,-1.96
2023-03-11T04:58:07.506Z,-2.01
2023-03-11T05:03:13.712Z,-2.09
2023-03-11T05:08:20.158Z,-2.15
2023-03-11T05:13:23.345Z,-2.21
2023-03-11T05:18:31.173Z,-2.28
2023-03-11T05:23:35.817Z,-2.36
2023-03-11T05:28:39.225Z,-2.35
2023-03-11T05:33:44.808Z,-2.34
2023-03-11T05:38:49.996Z,-2.36
2023-03-11T05:43:53.255Z,-2.47
2023-03-11T05:48:58.127Z,-2.54
2023-03-11T05:54:04.002Z,-2.57
2023-03-11T05:59:16.475Z,-2.61
2023-03-11T06:04:23.273Z,-2.61
2023-03-11T06:09:26.718Z,-2.65
2023-03-11T06:14:31.820Z,-2.69
2023-03-11T06:19:38.476Z,-2.74
2023-03-11T06:24:42.720Z,-2.70
2023-03-11T06:29:48.773Z,-2.67
2023-03-11T06:34:54.743Z,-2.67
2023-03-11T06:39:59.217Z,-2.65
2023-03-11T06:45:04.130Z,-2.63
2023-03-11T06:50:09.700Z,-2.59
2023-03-11T06:55:13.489Z,-2.56
2023-03-11T07:00:18.778Z,-2.50
2023-03-11T07:05:29.401Z,-2.44
2023-03-11T07:10:37.531Z,-2.38
2023-03-11T07:15:40.949Z,-2.34
2023-03-11T07:20:45.564Z,-2.24
2023-03-11T07:25:49.133Z,-2.14
2023-03-11T07:30:52.956Z,-2.01
2023-03-11T07:35:57.333Z,-1.90
2023-03-11T07:41:00.471Z,-1.79
2023-03-11T07:46:07.671Z,-1.71
2023-03-11T07:51:16.912Z,-1.60
2023-03-11T07:56:21.436Z,-1.52
2023-03-11T08:01:26.383Z,-1.40
2023-03-11T08:06:32.591Z,-1.12
2023-03-11T08:11:36.128Z,-0.97
2023-03-11T08:16:40.907Z,-0.93
2023-03-11T08:21:45.445Z,-0.83
2023-03-11T08:26:48.687Z,-0.75
2023-03-11T08:31:51.876Z,-0.61
2023-03-11T08:36:56.310Z,-0.49
2023-03-11T08:41:59.889Z,-0.37
2023-03-11T08:47:03.110Z,-0.31
2023-03-11T08:52:08.096Z,-0.18
2023-03-11T08:57:11.344Z,-0.16
2023-03-11T09:02:14.840Z,0.05
2023-03-11T09:07:19.586Z,0.28
2023-03-11T09:12:22.728Z,0.62
2023-03-11T09:17:25.800Z,0.93
2023-03-11T09:22:30.586Z,1.31
2023-03-11T09:27:36.356Z,1.68
2023-03-11T09:32:39.608Z,2.00
2023-03-11T09:37:44.557Z,2.28
2023-03-11T09:42:58.752Z,2.50
2023-03-11T09:48:22.906Z,2.59
2023-03-11T09:53:41.768Z,2.83
2023-03-11T09:58:48.041Z,3.06
2023-03-11T10:03:53.033Z,3.65
2023-03-11T10:09:04.542Z,4.49
2023-03-11T10:14:17.088Z,4.87
2023-03-11T10:19:32.088Z,5.39
2023-03-11T10:24:51.567Z,5.93
2023-03-11T10:30:06.240Z,6.23
2023-03-11T10:35:18.156Z,6.26
2023-03-11T10:40:29.687Z,6.28
2023-03-11T10:45:41.401Z,6.51
2023-03-11T10:50:53.380Z,6.79
2023-03-11T10:55:59.497Z,6.94
2023-03-11T11:01:05.872Z,6.86
2023-03-11T11:06:21.965Z,6.67
2023-03-11T11:11:26.343Z,6.53
2023-03-11T11:16:30.403Z,6.64
2023-03-11T11:21:35.932Z,6.39
2023-03-11T11:26:40.433Z,6.09
2023-03-11T11:31:46.088Z,6.14
2023-03-11T11:36:49.430Z,6.10
2023-03-11T11:41:54.394Z,5.89
2023-03-11T11:47:01.063Z,5.83
2023-03-11T11:52:10.759Z,5.74
2023-03-11T11:57:16.932Z,5.74
2023-03-11T12:02:43.215Z,5.76
2023-03-11T12:08:01.743Z,5.91
2023-03-11T12:13:29.158Z,5.76
2023-03-11T12:18:37.838Z,6.04
2023-03-11T12:23:55.157Z,6.20
2023-03-11T12:29:05.438Z,6.32
2023-03-11T12:34:12.387Z,6.50
2023-03-11T12:39:24.945Z,6.52
2023-03-11T12:44:31.735Z,6.49
2023-03-11T12:49:37.428Z,6.77
2023-03-11T12:54:41.961Z,6.95
2023-03-11T13:00:15.077Z,7.01
2023-03-11T13:05:24.932Z,7.12
2023-03-11T13:10:40.567Z,7.32
2023-03-11T13:15:45.249Z,7.41
2023-03-11T13:20:59.352Z,7.53
2023-03-11T13:26:31.561Z,7.60
2023-03-11T13:31:55.846Z,7.74
2023-03-11T13:37:16.859Z,7.88
2023-03-11T13:42:27.903Z,8.10
2023-03-11T13:47:33.584Z,8.21
2023-03-11T13:52:40.682Z,8.40
2023-03-11T13:57:51.538Z,8.67
2023-03-11T14:02:58.047Z,9.00
2023-03-11T14:08:14.463Z,9.22
2023-03-11T14:13:47.452Z,9.31
2023-03-11T14:19:15.398Z,9.39
2023-03-11T14:24:21.313Z,9.55
2023-03-11T14:29:32.323Z,9.71
2023-03-11T14:34:42.685Z,9.33
2023-03-11T14:39:47.644Z,9.61
2023-03-11T14:45:19.592Z,10.02
2023-03-11T14:50:26.098Z,8.94
2023-03-11T14:55:33.833Z,9.04
2023-03-11T15:00:41.558Z,9.32
2023-03-11T15:05:49.883Z,8.83
2023-03-11T15:11:17.314Z,9.18
2023-03-11T15:16:27.104Z,9.49
2023-03-11T15:21:33.197Z,9.82
2023-03-11T15:26:38.333Z,9.58
2023-03-11T15:31:42.727Z,9.83
2023-03-11T15:36:57.444Z,10.04
2023-03-11T15:48:53.128Z,9.53
2023-03-11T15:54:18.189Z,9.51
2023-03-11T15:59:21.423Z,9.57
2023-03-11T16:04:24.718Z,9.77
2023-03-11T16:09:31.608Z,9.74
2023-03-11T16:14:34.696Z,9.77
2023-03-11T16:19:37.929Z,9.52
2023-03-11T16:24:43.652Z,9.65
2023-03-11T16:29:47.625Z,9.40
2023-03-11T16:34:50.777Z,9.05
2023-03-11T16:39:58.627Z,8.61
2023-03-11T16:45:03.902Z,8.29
2023-03-11T16:50:11.826Z,8.17
2023-03-11T16:55:19.683Z,8.12
2023-03-11T17:00:24.490Z,8.04
2023-03-11T17:05:27.776Z,7.80
2023-03-11T17:10:38.139Z,7.60
2023-03-11T17:15:44.366Z,7.36
2023-03-11T17:20:47.499Z,7.16
2023-03-11T17:25:52.246Z,6.98
2023-03-11T17:30:55.720Z,6.67
2023-03-11T17:36:05.093Z,6.47
2023-03-11T17:41:10.250Z,6.23
2023-03-11T17:46:15.534Z,5.99
2023-03-11T17:51:21.205Z,5.78
2023-03-11T17:56:26.479Z,5.57
2023-03-11T18:01:30.466Z,5.53
2023-03-11T18:06:33.886Z,5.44
2023-03-11T18:11:38.530Z,5.32
2023-03-11T18:16:41.710Z,5.05
2023-03-11T18:21:45.619Z,4.81
2023-03-11T18:26:50.159Z,4.60
2023-03-11T18:31:55.183Z,4.46
2023-03-11T18:36:58.540Z,4.32
2023-03-11T18:42:05.440Z,4.17
2023-03-11T18:47:08.975Z,4.05
2023-03-11T18:52:12.130Z,3.97
2023-03-11T18:57:20.118Z,3.91
2023-03-11T19:02:23.321Z,3.75
2023-03-11T19:07:26.532Z,3.67
2023-03-11T19:12:33.808Z,3.53
2023-03-11T19:17:36.998Z,3.41
2023-03-11T19:22:47.791Z,3.34
2023-03-11T19:27:52.422Z,3.27
2023-03-11T19:32:55.785Z,3.21
2023-03-11T19:37:59.500Z,3.10
2023-03-11T19:43:06.579Z,3.02
2023-03-11T19:48:13.373Z,2.95
2023-03-11T19:53:16.946Z,2.89
2023-03-11T19:58:23.973Z,2.99
2023-03-11T20:03:27.911Z,2.93
2023-03-11T20:08:36.426Z,2.88
2023-03-11T20:13:44.064Z,2.84
2023-03-11T20:18:50.219Z,2.82
2023-03-11T20:23:55.194Z,2.73
2023-03-11T20:29:00.142Z,2.68
2023-03-11T20:34:05.883Z,2.63
2023-03-11T20:39:11.527Z,2.56
2023-03-11T20:44:16.298Z,2.53
2023-03-11T20:49:19.403Z,2.51
2023-03-11T20:54:22.485Z,2.46
2023-03-11T20:59:27.212Z,2.37
2023-03-11T21:04:30.386Z,2.52
2023-03-11T21:09:33.740Z,2.57
2023-03-11T21:14:38.854Z,2.68
2023-03-11T21:19:42.227Z,2.63
2023-03-11T21:24:46.002Z,2.67
2023-03-11T21:29:50.704Z,2.74
2023-03-11T21:34:57.405Z,2.81
2023-03-11T21:40:00.756Z,2.83
2023-03-11T21:45:09.539Z,2.83
2023-03-11T21:50:13.733Z,2.96
2023-03-11T21:55:17.364Z,2.96
2023-03-11T22:00:22.576Z,2.99
2023-03-11T22:05:26.309Z,3.01
2023-03-11T22:10:29.723Z,2.97
2023-03-11T22:15:34.697Z,2.89
2023-03-11T22:20:42.652Z,2.96
2023-03-11T22:25:46.191Z,2.99
2023-03-11T22:30:50.950Z,3.00
2023-03-11T22:35:56.174Z,3.07
2023-03-11T22:41:00.395Z,3.05
2023-03-11T22:46:08.015Z,3.05
2023-03-11T22:51:11.336Z,3.05
2023-03-11T22:56:19.620Z,3.03
2023-03-11T23:01:24.174Z,3.01
2023-03-11T23:06:27.518Z,3.02
2023-03-11T23:11:30.736Z,3.00
2023-03-11T23:16:35.249Z,2.96
2023-03-11T23:21:38.857Z,2.93
2023-03-11T23:26:41.882Z,2.88
2023-03-11T23:31:46.618Z,2.87
2023-03-11T23:36:49.798Z,2.88
2023-03-11T23:41:52.839Z,2.84
2023-03-11T23:46:57.506Z,2.89
2023-03-11T23:52:00.754Z,2.89
2023-03-11T23:57:06.346Z,2.89
